sensor_id;sensor_type;location;lat;lon;timestamp;pressure;altitude;pressure_sealevel;temperature;humidity
59759;BME280;61150;62.516;17.862;2022-07-09T00:02:20;100739.73;;;14.91;54.47
59759;BME280;61150;62.516;17.862;2022-07-09T00:04:48;100734.31;;;14.87;54.08
59759;BME280;61150;62.516;17.862;2022-07-09T00:07:17;100727.76;;;14.95;53.58
59759;BME280;61150;62.516;17.862;2022-07-09T00:09:46;100724.20;;;14.97;53.67
59759;BME280;61150;62.516;17.862;2022-07-09T00:12:15;100721.47;;;14.80;53.74
59759;BME280;61150;62.516;17.862;2022-07-09T00:14:44;100719.90;;;14.88;53.90
59759;BME280;61150;62.516;17.862;2022-07-09T00:17:12;100715.92;;;14.80;53.60
59759;BME280;61150;62.516;17.862;2022-07-09T00:19:41;100709.42;;;14.81;53.61
59759;BME280;61150;62.516;17.862;2022-07-09T00:22:10;100707.85;;;14.77;53.70
59759;BME280;61150;62.516;17.862;2022-07-09T00:24:39;100705.25;;;14.65;54.35
59759;BME280;61150;62.516;17.862;2022-07-09T00:27:08;100704.20;;;14.67;54.34
59759;BME280;61150;62.516;17.862;2022-07-09T00:29:37;100705.66;;;14.58;54.32
59759;BME280;61150;62.516;17.862;2022-07-09T00:32:07;100703.00;;;14.59;54.46
59759;BME280;61150;62.516;17.862;2022-07-09T00:34:36;100699.98;;;14.49;54.80
59759;BME280;61150;62.516;17.862;2022-07-09T00:37:05;100695.86;;;14.52;54.60
59759;BME280;61150;62.516;17.862;2022-07-09T00:39:35;100694.77;;;14.42;54.73
59759;BME280;61150;62.516;17.862;2022-07-09T00:42:05;100691.16;;;14.35;54.80
59759;BME280;61150;62.516;17.862;2022-07-09T00:44:35;100690.47;;;14.36;54.93
59759;BME280;61150;62.516;17.862;2022-07-09T00:47:06;100686.31;;;14.30;54.78
59759;BME280;61150;62.516;17.862;2022-07-09T00:49:39;100682.96;;;14.33;54.88
59759;BME280;61150;62.516;17.862;2022-07-09T00:52:12;100681.64;;;14.21;55.29
59759;BME280;61150;62.516;17.862;2022-07-09T00:54:42;100679.37;;;14.25;54.87
59759;BME280;61150;62.516;17.862;2022-07-09T00:57:11;100677.38;;;14.18;54.89
59759;BME280;61150;62.516;17.862;2022-07-09T00:59:40;100679.18;;;14.15;55.54
59759;BME280;61150;62.516;17.862;2022-07-09T01:03:04;100676.02;;;14.17;56.07
59759;BME280;61150;62.516;17.862;2022-07-09T01:05:33;100679.43;;;14.22;55.29
59759;BME280;61150;62.516;17.862;2022-07-09T01:08:03;100672.79;;;14.43;54.15
59759;BME280;61150;62.516;17.862;2022-07-09T01:10:32;100664.32;;;14.52;53.62
59759;BME280;61150;62.516;17.862;2022-07-09T01:13:01;100659.64;;;14.60;53.24
59759;BME280;61150;62.516;17.862;2022-07-09T01:15:31;100652.98;;;14.71;53.14
59759;BME280;61150;62.516;17.862;2022-07-09T01:18:00;100652.21;;;14.58;53.03
59759;BME280;61150;62.516;17.862;2022-07-09T01:20:31;100639.41;;;14.59;53.14
59759;BME280;61150;62.516;17.862;2022-07-09T01:23:00;100641.74;;;14.57;53.15
59759;BME280;61150;62.516;17.862;2022-07-09T01:25:34;100643.64;;;14.55;53.23
59759;BME280;61150;62.516;17.862;2022-07-09T01:28:04;100642.27;;;14.44;53.33
59759;BME280;61150;62.516;17.862;2022-07-09T01:30:35;100630.93;;;14.43;53.55
59759;BME280;61150;62.516;17.862;2022-07-09T01:33:04;100624.68;;;14.40;53.85
59759;BME280;61150;62.516;17.862;2022-07-09T01:35:32;100619.37;;;14.31;54.05
59759;BME280;61150;62.516;17.862;2022-07-09T01:38:01;100616.69;;;14.45;53.79
59759;BME280;61150;62.516;17.862;2022-07-09T01:40:29;100611.34;;;14.50;53.77
59759;BME280;61150;62.516;17.862;2022-07-09T01:42:59;100608.06;;;14.40;53.19
59759;BME280;61150;62.516;17.862;2022-07-09T01:45:27;100609.85;;;14.48;53.05
59759;BME280;61150;62.516;17.862;2022-07-09T01:47:57;100608.49;;;14.51;52.65
59759;BME280;61150;62.516;17.862;2022-07-09T01:50:26;100604.58;;;14.64;52.62
59759;BME280;61150;62.516;17.862;2022-07-09T01:52:54;100601.43;;;14.54;52.42
59759;BME280;61150;62.516;17.862;2022-07-09T01:55:23;100589.00;;;14.61;52.45
59759;BME280;61150;62.516;17.862;2022-07-09T01:57:52;100590.90;;;14.49;52.63
59759;BME280;61150;62.516;17.862;2022-07-09T02:04:07;100587.46;;;14.36;52.91
59759;BME280;61150;62.516;17.862;2022-07-09T02:06:36;100587.43;;;14.46;52.76
59759;BME280;61150;62.516;17.862;2022-07-09T02:09:03;100580.87;;;14.39;52.78
59759;BME280;61150;62.516;17.862;2022-07-09T02:11:31;100581.30;;;14.50;52.60
59759;BME280;61150;62.516;17.862;2022-07-09T02:14:00;100577.41;;;14.56;52.48
59759;BME280;61150;62.516;17.862;2022-07-09T02:16:29;100578.69;;;14.56;52.48
59759;BME280;61150;62.516;17.862;2022-07-09T02:18:58;100576.06;;;14.64;52.37
59759;BME280;61150;62.516;17.862;2022-07-09T02:21:26;100572.54;;;14.64;52.41
59759;BME280;61150;62.516;17.862;2022-07-09T02:23:55;100570.10;;;14.69;52.46
59759;BME280;61150;62.516;17.862;2022-07-09T02:26:24;100564.90;;;14.64;52.58
59759;BME280;61150;62.516;17.862;2022-07-09T02:28:53;100559.47;;;14.74;52.61
59759;BME280;61150;62.516;17.862;2022-07-09T02:31:22;100558.06;;;14.62;52.66
59759;BME280;61150;62.516;17.862;2022-07-09T02:33:52;100551.22;;;14.68;52.68
59759;BME280;61150;62.516;17.862;2022-07-09T02:36:21;100553.96;;;14.73;52.72
59759;BME280;61150;62.516;17.862;2022-07-09T02:38:48;100545.89;;;14.65;53.05
59759;BME280;61150;62.516;17.862;2022-07-09T02:41:16;100546.64;;;14.56;52.77
59759;BME280;61150;62.516;17.862;2022-07-09T02:43:44;100545.01;;;14.65;52.88
59759;BME280;61150;62.516;17.862;2022-07-09T02:46:12;100540.75;;;14.54;53.22
59759;BME280;61150;62.516;17.862;2022-07-09T02:48:41;100539.78;;;14.68;53.06
59759;BME280;61150;62.516;17.862;2022-07-09T02:51:10;100539.23;;;14.83;53.09
59759;BME280;61150;62.516;17.862;2022-07-09T02:53:39;100530.81;;;14.78;53.05
59759;BME280;61150;62.516;17.862;2022-07-09T02:56:08;100526.82;;;14.79;53.23
59759;BME280;61150;62.516;17.862;2022-07-09T02:58:37;100524.49;;;14.80;53.65
59759;BME280;61150;62.516;17.862;2022-07-09T03:01:06;100527.19;;;14.73;53.59
59759;BME280;61150;62.516;17.862;2022-07-09T03:03:34;100522.54;;;14.69;53.98
59759;BME280;61150;62.516;17.862;2022-07-09T03:06:03;100511.69;;;14.66;53.89
59759;BME280;61150;62.516;17.862;2022-07-09T03:08:32;100511.76;;;14.79;53.90
59759;BME280;61150;62.516;17.862;2022-07-09T03:11:01;100501.64;;;14.64;54.00
59759;BME280;61150;62.516;17.862;2022-07-09T03:13:29;100496.66;;;14.62;54.06
59759;BME280;61150;62.516;17.862;2022-07-09T03:16:00;100490.35;;;14.61;54.30
59759;BME280;61150;62.516;17.862;2022-07-09T03:18:30;100481.73;;;14.75;54.03
59759;BME280;61150;62.516;17.862;2022-07-09T03:21:00;100476.76;;;14.86;53.79
59759;BME280;61150;62.516;17.862;2022-07-09T03:23:31;100477.85;;;14.88;53.91
59759;BME280;61150;62.516;17.862;2022-07-09T03:26:01;100478.56;;;14.86;53.69
59759;BME280;61150;62.516;17.862;2022-07-09T03:28:32;100478.95;;;14.91;53.85
59759;BME280;61150;62.516;17.862;2022-07-09T03:31:02;100485.01;;;14.87;54.47
59759;BME280;61150;62.516;17.862;2022-07-09T03:33:30;100481.89;;;14.80;54.01
59759;BME280;61150;62.516;17.862;2022-07-09T03:35:59;100481.11;;;14.92;53.77
59759;BME280;61150;62.516;17.862;2022-07-09T03:38:28;100480.81;;;14.92;53.57
59759;BME280;61150;62.516;17.862;2022-07-09T03:40:57;100472.80;;;14.92;52.99
59759;BME280;61150;62.516;17.862;2022-07-09T03:43:26;100466.08;;;15.01;52.81
59759;BME280;61150;62.516;17.862;2022-07-09T03:45:55;100464.51;;;14.97;52.70
59759;BME280;61150;62.516;17.862;2022-07-09T03:48:24;100463.85;;;14.93;52.37
59759;BME280;61150;62.516;17.862;2022-07-09T03:50:53;100460.30;;;15.03;52.59
59759;BME280;61150;62.516;17.862;2022-07-09T03:53:21;100457.61;;;14.91;53.93
59759;BME280;61150;62.516;17.862;2022-07-09T03:55:50;100450.45;;;14.94;54.88
59759;BME280;61150;62.516;17.862;2022-07-09T03:58:19;100447.60;;;14.70;56.52
59759;BME280;61150;62.516;17.862;2022-07-09T04:02:52;100447.08;;;14.23;58.69
59759;BME280;61150;62.516;17.862;2022-07-09T04:05:20;100456.33;;;14.10;59.06
59759;BME280;61150;62.516;17.862;2022-07-09T04:07:49;100445.35;;;14.00;61.67
59759;BME280;61150;62.516;17.862;2022-07-09T04:10:17;100442.99;;;13.64;61.63
59759;BME280;61150;62.516;17.862;2022-07-09T04:12:46;100435.73;;;13.55;62.40
59759;BME280;61150;62.516;17.862;2022-07-09T04:15:15;100436.07;;;13.46;62.88
59759;BME280;61150;62.516;17.862;2022-07-09T04:17:43;100432.38;;;13.51;63.30
59759;BME280;61150;62.516;17.862;2022-07-09T04:20:12;100437.79;;;13.51;63.79
59759;BME280;61150;62.516;17.862;2022-07-09T04:22:40;100434.98;;;13.44;65.14
59759;BME280;61150;62.516;17.862;2022-07-09T04:25:09;100445.27;;;13.31;65.48
59759;BME280;61150;62.516;17.862;2022-07-09T04:27:38;100441.81;;;13.32;65.51
59759;BME280;61150;62.516;17.862;2022-07-09T04:30:08;100443.33;;;13.20;66.76
59759;BME280;61150;62.516;17.862;2022-07-09T04:32:38;100434.37;;;13.16;67.75
59759;BME280;61150;62.516;17.862;2022-07-09T04:35:07;100420.49;;;13.16;67.97
59759;BME280;61150;62.516;17.862;2022-07-09T04:37:36;100412.89;;;13.26;68.11
59759;BME280;61150;62.516;17.862;2022-07-09T04:40:06;100409.02;;;13.10;68.59
59759;BME280;61150;62.516;17.862;2022-07-09T04:42:34;100414.32;;;13.06;69.23
59759;BME280;61150;62.516;17.862;2022-07-09T04:45:05;100416.98;;;12.89;69.82
59759;BME280;61150;62.516;17.862;2022-07-09T04:47:34;100405.67;;;12.73;70.52
59759;BME280;61150;62.516;17.862;2022-07-09T04:50:04;100411.30;;;12.65;71.54
59759;BME280;61150;62.516;17.862;2022-07-09T04:52:33;100409.95;;;12.47;71.86
59759;BME280;61150;62.516;17.862;2022-07-09T04:55:01;100410.75;;;12.47;72.49
59759;BME280;61150;62.516;17.862;2022-07-09T04:57:30;100410.03;;;12.41;73.21
59759;BME280;61150;62.516;17.862;2022-07-09T05:00:02;100413.34;;;12.27;73.75
59759;BME280;61150;62.516;17.862;2022-07-09T05:02:31;100409.54;;;12.28;73.98
59759;BME280;61150;62.516;17.862;2022-07-09T05:05:01;100411.84;;;12.12;74.14
59759;BME280;61150;62.516;17.862;2022-07-09T05:07:30;100412.16;;;12.18;73.99
59759;BME280;61150;62.516;17.862;2022-07-09T05:10:00;100409.04;;;12.16;74.37
59759;BME280;61150;62.516;17.862;2022-07-09T05:12:30;100411.76;;;11.93;74.96
59759;BME280;61150;62.516;17.862;2022-07-09T05:15:00;100399.21;;;11.95;75.10
59759;BME280;61150;62.516;17.862;2022-07-09T05:17:33;100390.17;;;11.95;75.29
59759;BME280;61150;62.516;17.862;2022-07-09T05:20:02;100381.07;;;12.03;75.77
59759;BME280;61150;62.516;17.862;2022-07-09T05:22:31;100372.74;;;11.94;77.11
59759;BME280;61150;62.516;17.862;2022-07-09T05:25:02;100369.26;;;12.10;77.84
59759;BME280;61150;62.516;17.862;2022-07-09T05:27:32;100372.95;;;11.88;78.43
59759;BME280;61150;62.516;17.862;2022-07-09T05:30:01;100355.49;;;11.82;78.41
59759;BME280;61150;62.516;17.862;2022-07-09T05:32:30;100351.80;;;11.84;79.34
59759;BME280;61150;62.516;17.862;2022-07-09T05:34:59;100351.58;;;11.87;79.56
59759;BME280;61150;62.516;17.862;2022-07-09T05:37:29;100335.03;;;11.85;79.95
59759;BME280;61150;62.516;17.862;2022-07-09T05:39:59;100326.77;;;11.67;79.85
59759;BME280;61150;62.516;17.862;2022-07-09T05:42:28;100325.09;;;11.68;79.91
59759;BME280;61150;62.516;17.862;2022-07-09T05:44:58;100327.39;;;11.66;79.94
59759;BME280;61150;62.516;17.862;2022-07-09T05:47:27;100330.43;;;11.55;80.39
59759;BME280;61150;62.516;17.862;2022-07-09T05:49:55;100339.68;;;11.63;80.32
59759;BME280;61150;62.516;17.862;2022-07-09T05:52:24;100338.18;;;11.67;80.71
59759;BME280;61150;62.516;17.862;2022-07-09T05:54:53;100334.80;;;11.63;80.25
59759;BME280;61150;62.516;17.862;2022-07-09T05:57:22;100336.83;;;11.73;80.29
59759;BME280;61150;62.516;17.862;2022-07-09T05:59:51;100338.34;;;11.67;80.16
59759;BME280;61150;62.516;17.862;2022-07-09T06:02:19;100337.50;;;11.67;79.93
59759;BME280;61150;62.516;17.862;2022-07-09T06:04:48;100343.74;;;11.67;79.60
59759;BME280;61150;62.516;17.862;2022-07-09T06:07:17;100347.55;;;11.64;79.26
59759;BME280;61150;62.516;17.862;2022-07-09T06:09:46;100358.47;;;11.53;78.95
59759;BME280;61150;62.516;17.862;2022-07-09T06:12:15;100355.37;;;11.57;78.89
59759;BME280;61150;62.516;17.862;2022-07-09T06:14:44;100358.14;;;11.56;78.20
59759;BME280;61150;62.516;17.862;2022-07-09T06:17:13;100367.42;;;11.61;77.86
59759;BME280;61150;62.516;17.862;2022-07-09T06:19:42;100371.40;;;11.66;77.67
59759;BME280;61150;62.516;17.862;2022-07-09T06:22:11;100364.42;;;11.53;77.79
59759;BME280;61150;62.516;17.862;2022-07-09T06:24:39;100348.07;;;11.64;77.90
59759;BME280;61150;62.516;17.862;2022-07-09T06:27:08;100320.52;;;11.62;78.10
59759;BME280;61150;62.516;17.862;2022-07-09T06:29:37;100291.01;;;11.69;78.09
59759;BME280;61150;62.516;17.862;2022-07-09T06:32:07;100261.30;;;11.65;77.99
59759;BME280;61150;62.516;17.862;2022-07-09T06:34:35;100250.53;;;11.62;77.98
59759;BME280;61150;62.516;17.862;2022-07-09T06:37:04;100251.93;;;11.58;78.06
59759;BME280;61150;62.516;17.862;2022-07-09T06:39:33;100253.72;;;11.57;78.05
59759;BME280;61150;62.516;17.862;2022-07-09T06:42:04;100255.79;;;11.45;78.13
59759;BME280;61150;62.516;17.862;2022-07-09T06:44:33;100258.84;;;11.42;78.10
59759;BME280;61150;62.516;17.862;2022-07-09T06:47:02;100257.99;;;11.37;78.47
59759;BME280;61150;62.516;17.862;2022-07-09T06:49:30;100254.13;;;11.57;77.64
59759;BME280;61150;62.516;17.862;2022-07-09T06:52:01;100255.37;;;11.54;77.69
59759;BME280;61150;62.516;17.862;2022-07-09T06:54:30;100264.87;;;11.53;77.64
59759;BME280;61150;62.516;17.862;2022-07-09T06:57:00;100261.28;;;11.64;77.11
59759;BME280;61150;62.516;17.862;2022-07-09T06:59:29;100260.48;;;11.71;76.83
59759;BME280;61150;62.516;17.862;2022-07-09T07:03:47;100252.68;;;11.14;78.14
59759;BME280;61150;62.516;17.862;2022-07-09T07:06:16;100251.51;;;11.22;77.87
59759;BME280;61150;62.516;17.862;2022-07-09T07:08:45;100249.00;;;11.37;77.64
59759;BME280;61150;62.516;17.862;2022-07-09T07:11:14;100245.65;;;11.33;77.87
59759;BME280;61150;62.516;17.862;2022-07-09T07:13:43;100242.95;;;11.53;77.44
59759;BME280;61150;62.516;17.862;2022-07-09T07:16:12;100239.22;;;11.65;76.87
59759;BME280;61150;62.516;17.862;2022-07-09T07:18:41;100235.15;;;11.68;76.42
59759;BME280;61150;62.516;17.862;2022-07-09T07:21:09;100230.81;;;11.80;76.17
59759;BME280;61150;62.516;17.862;2022-07-09T07:23:38;100225.57;;;11.87;75.97
59759;BME280;61150;62.516;17.862;2022-07-09T07:26:07;100224.51;;;11.98;74.95
59759;BME280;61150;62.516;17.862;2022-07-09T07:28:36;100226.35;;;12.14;74.96
59759;BME280;61150;62.516;17.862;2022-07-09T07:31:05;100233.87;;;12.23;73.94
59759;BME280;61150;62.516;17.862;2022-07-09T07:33:34;100230.42;;;12.38;73.02
59759;BME280;61150;62.516;17.862;2022-07-09T07:36:03;100238.11;;;12.47;72.78
59759;BME280;61150;62.516;17.862;2022-07-09T07:38:32;100241.12;;;12.70;72.96
59759;BME280;61150;62.516;17.862;2022-07-09T07:41:01;100236.38;;;12.79;72.49
59759;BME280;61150;62.516;17.862;2022-07-09T07:43:29;100234.41;;;12.86;72.09
59759;BME280;61150;62.516;17.862;2022-07-09T07:45:59;100234.89;;;13.03;72.44
59759;BME280;61150;62.516;17.862;2022-07-09T07:48:29;100231.05;;;13.08;72.80
59759;BME280;61150;62.516;17.862;2022-07-09T07:50:58;100230.07;;;13.18;72.74
59759;BME280;61150;62.516;17.862;2022-07-09T07:53:26;100232.55;;;13.23;71.91
59759;BME280;61150;62.516;17.862;2022-07-09T07:55:55;100228.57;;;13.34;72.42
59759;BME280;61150;62.516;17.862;2022-07-09T07:58:24;100223.35;;;13.40;70.93
59759;BME280;61150;62.516;17.862;2022-07-09T08:00:53;100219.33;;;13.43;71.13
59759;BME280;61150;62.516;17.862;2022-07-09T08:03:22;100214.67;;;13.38;71.79
59759;BME280;61150;62.516;17.862;2022-07-09T08:05:50;100212.94;;;13.47;71.69
59759;BME280;61150;62.516;17.862;2022-07-09T08:08:19;100209.09;;;13.53;70.76
59759;BME280;61150;62.516;17.862;2022-07-09T08:10:48;100211.14;;;13.66;70.29
59759;BME280;61150;62.516;17.862;2022-07-09T08:13:17;100213.22;;;13.66;70.97
59759;BME280;61150;62.516;17.862;2022-07-09T08:15:46;100216.16;;;13.69;70.00
59759;BME280;61150;62.516;17.862;2022-07-09T08:18:15;100221.25;;;13.60;69.67
59759;BME280;61150;62.516;17.862;2022-07-09T08:20:43;100220.34;;;13.66;70.33
59759;BME280;61150;62.516;17.862;2022-07-09T08:23:12;100219.64;;;13.83;70.04
59759;BME280;61150;62.516;17.862;2022-07-09T08:25:41;100223.63;;;13.74;70.45
59759;BME280;61150;62.516;17.862;2022-07-09T08:28:10;100229.41;;;13.72;69.75
59759;BME280;61150;62.516;17.862;2022-07-09T08:30:39;100230.95;;;13.75;69.66
59759;BME280;61150;62.516;17.862;2022-07-09T08:33:08;100228.24;;;13.72;70.05
59759;BME280;61150;62.516;17.862;2022-07-09T08:35:36;100226.81;;;13.80;69.67
59759;BME280;61150;62.516;17.862;2022-07-09T08:38:05;100229.19;;;13.85;69.51
59759;BME280;61150;62.516;17.862;2022-07-09T08:40:35;100234.73;;;13.89;69.27
59759;BME280;61150;62.516;17.862;2022-07-09T08:43:05;100242.59;;;13.95;67.98
59759;BME280;61150;62.516;17.862;2022-07-09T08:45:34;100252.12;;;13.92;69.00
59759;BME280;61150;62.516;17.862;2022-07-09T08:48:03;100263.69;;;13.77;70.27
59759;BME280;61150;62.516;17.862;2022-07-09T08:50:33;100266.93;;;13.56;71.11
59759;BME280;61150;62.516;17.862;2022-07-09T08:53:04;100272.73;;;13.33;72.27
59759;BME280;61150;62.516;17.862;2022-07-09T08:55:33;100275.34;;;13.11;72.59
59759;BME280;61150;62.516;17.862;2022-07-09T08:58:01;100280.54;;;13.16;72.51
59759;BME280;61150;62.516;17.862;2022-07-09T09:00:31;100284.54;;;13.13;72.53
59759;BME280;61150;62.516;17.862;2022-07-09T09:03:01;100287.46;;;13.23;73.01
59759;BME280;61150;62.516;17.862;2022-07-09T09:05:29;100296.82;;;13.20;73.17
59759;BME280;61150;62.516;17.862;2022-07-09T09:08:17;100307.39;;;13.14;73.43
59759;BME280;61150;62.516;17.862;2022-07-09T09:10:46;100323.05;;;13.09;73.62
59759;BME280;61150;62.516;17.862;2022-07-09T09:13:15;100329.73;;;13.07;73.55
59759;BME280;61150;62.516;17.862;2022-07-09T09:15:43;100330.81;;;13.04;72.82
59759;BME280;61150;62.516;17.862;2022-07-09T09:18:12;100325.26;;;13.00;73.28
59759;BME280;61150;62.516;17.862;2022-07-09T09:20:44;100317.78;;;12.94;74.29
59759;BME280;61150;62.516;17.862;2022-07-09T09:23:16;100305.83;;;12.94;74.87
59759;BME280;61150;62.516;17.862;2022-07-09T09:25:45;100311.09;;;13.09;74.52
59759;BME280;61150;62.516;17.862;2022-07-09T09:28:14;100315.21;;;13.12;74.37
59759;BME280;61150;62.516;17.862;2022-07-09T09:30:43;100320.01;;;13.29;73.61
59759;BME280;61150;62.516;17.862;2022-07-09T09:33:14;100319.40;;;13.22;73.19
59759;BME280;61150;62.516;17.862;2022-07-09T09:35:43;100321.51;;;13.25;73.10
59759;BME280;61150;62.516;17.862;2022-07-09T09:38:12;100324.07;;;13.23;73.86
59759;BME280;61150;62.516;17.862;2022-07-09T09:40:45;100324.63;;;13.21;73.75
59759;BME280;61150;62.516;17.862;2022-07-09T09:43:18;100320.16;;;13.31;72.92
59759;BME280;61150;62.516;17.862;2022-07-09T09:45:49;100318.96;;;13.24;72.26
59759;BME280;61150;62.516;17.862;2022-07-09T09:48:19;100318.30;;;13.52;72.46
59759;BME280;61150;62.516;17.862;2022-07-09T09:50:51;100315.13;;;13.44;72.60
59759;BME280;61150;62.516;17.862;2022-07-09T09:53:21;100316.48;;;13.57;73.02
59759;BME280;61150;62.516;17.862;2022-07-09T09:55:51;100311.73;;;13.60;72.66
59759;BME280;61150;62.516;17.862;2022-07-09T09:58:20;100310.08;;;13.69;72.18
59759;BME280;61150;62.516;17.862;2022-07-09T10:02:50;100311.05;;;14.11;71.81
59759;BME280;61150;62.516;17.862;2022-07-09T10:05:18;100311.22;;;14.24;72.12
59759;BME280;61150;62.516;17.862;2022-07-09T10:07:47;100306.00;;;14.31;72.09
59759;BME280;61150;62.516;17.862;2022-07-09T10:10:17;100303.14;;;14.29;72.23
59759;BME280;61150;62.516;17.862;2022-07-09T10:12:47;100300.66;;;14.40;72.35
59759;BME280;61150;62.516;17.862;2022-07-09T10:15:21;100297.89;;;14.70;70.57
59759;BME280;61150;62.516;17.862;2022-07-09T10:17:50;100295.62;;;15.24;71.04
59759;BME280;61150;62.516;17.862;2022-07-09T10:20:29;100288.92;;;15.60;70.87
59759;BME280;61150;62.516;17.862;2022-07-09T10:22:58;100291.96;;;15.79;69.55
59759;BME280;61150;62.516;17.862;2022-07-09T10:25:28;100281.38;;;16.27;69.14
59759;BME280;61150;62.516;17.862;2022-07-09T10:27:57;100285.30;;;16.13;68.05
59759;BME280;61150;62.516;17.862;2022-07-09T10:30:27;100273.73;;;16.34;68.15
59759;BME280;61150;62.516;17.862;2022-07-09T10:33:05;100271.80;;;16.42;67.67
59759;BME280;61150;62.516;17.862;2022-07-09T10:35:40;100266.07;;;16.62;64.07
59759;BME280;61150;62.516;17.862;2022-07-09T10:38:09;100265.00;;;17.18;63.91
59759;BME280;61150;62.516;17.862;2022-07-09T10:40:39;100258.60;;;17.44;61.86
59759;BME280;61150;62.516;17.862;2022-07-09T10:43:08;100263.84;;;17.57;60.17
59759;BME280;61150;62.516;17.862;2022-07-09T10:45:38;100255.70;;;17.68;60.31
59759;BME280;61150;62.516;17.862;2022-07-09T10:48:10;100256.36;;;17.46;61.84
59759;BME280;61150;62.516;17.862;2022-07-09T10:50:45;100256.44;;;17.64;60.73
59759;BME280;61150;62.516;17.862;2022-07-09T10:53:14;100255.63;;;17.63;62.33
59759;BME280;61150;62.516;17.862;2022-07-09T10:55:43;100259.81;;;17.30;61.44
59759;BME280;61150;62.516;17.862;2022-07-09T10:58:16;100259.75;;;17.20;61.74
59759;BME280;61150;62.516;17.862;2022-07-09T11:00:54;100265.16;;;16.79;60.71
59759;BME280;61150;62.516;17.862;2022-07-09T11:03:25;100267.52;;;16.58;62.16
59759;BME280;61150;62.516;17.862;2022-07-09T11:05:53;100265.06;;;16.50;63.24
59759;BME280;61150;62.516;17.862;2022-07-09T11:08:22;100262.84;;;16.43;64.07
59759;BME280;61150;62.516;17.862;2022-07-09T11:10:50;100264.22;;;16.33;64.03
59759;BME280;61150;62.516;17.862;2022-07-09T11:13:22;100262.87;;;16.42;63.34
59759;BME280;61150;62.516;17.862;2022-07-09T11:15:58;100267.27;;;16.53;62.48
59759;BME280;61150;62.516;17.862;2022-07-09T11:18:27;100261.38;;;16.68;62.37
59759;BME280;61150;62.516;17.862;2022-07-09T11:20:57;100262.28;;;16.78;62.56
59759;BME280;61150;62.516;17.862;2022-07-09T11:23:25;100262.33;;;16.70;63.62
59759;BME280;61150;62.516;17.862;2022-07-09T11:25:54;100262.66;;;16.69;61.78
59759;BME280;61150;62.516;17.862;2022-07-09T11:28:24;100256.25;;;16.74;62.16
59759;BME280;61150;62.516;17.862;2022-07-09T11:30:58;100257.58;;;17.03;62.95
59759;BME280;61150;62.516;17.862;2022-07-09T11:33:28;100258.93;;;17.06;63.41
59759;BME280;61150;62.516;17.862;2022-07-09T11:35:56;100259.30;;;17.17;62.55
59759;BME280;61150;62.516;17.862;2022-07-09T11:38:25;100261.30;;;17.30;61.77
59759;BME280;61150;62.516;17.862;2022-07-09T11:40:59;100261.31;;;17.20;62.29
59759;BME280;61150;62.516;17.862;2022-07-09T11:43:28;100257.74;;;17.09;60.91
59759;BME280;61150;62.516;17.862;2022-07-09T11:45:57;100258.94;;;16.80;62.13
59759;BME280;61150;62.516;17.862;2022-07-09T11:48:26;100258.44;;;16.78;60.23
59759;BME280;61150;62.516;17.862;2022-07-09T11:50:54;100258.18;;;16.92;60.38
59759;BME280;61150;62.516;17.862;2022-07-09T11:53:24;100255.65;;;17.11;59.76
59759;BME280;61150;62.516;17.862;2022-07-09T11:55:57;100250.67;;;17.23;59.09
59759;BME280;61150;62.516;17.862;2022-07-09T11:58:26;100240.15;;;17.71;58.40
59759;BME280;61150;62.516;17.862;2022-07-09T12:00:55;100236.10;;;17.85;58.07
59759;BME280;61150;62.516;17.862;2022-07-09T12:03:24;100232.93;;;18.07;58.78
59759;BME280;61150;62.516;17.862;2022-07-09T12:05:52;100231.03;;;18.12;55.75
59759;BME280;61150;62.516;17.862;2022-07-09T12:08:27;100239.41;;;18.24;58.95
59759;BME280;61150;62.516;17.862;2022-07-09T12:10:55;100230.63;;;18.02;59.23
59759;BME280;61150;62.516;17.862;2022-07-09T12:13:24;100229.22;;;17.92;60.90
59759;BME280;61150;62.516;17.862;2022-07-09T12:15:52;100228.70;;;17.63;58.98
59759;BME280;61150;62.516;17.862;2022-07-09T12:18:21;100228.83;;;17.51;57.56
59759;BME280;61150;62.516;17.862;2022-07-09T12:20:50;100232.64;;;17.54;56.66
59759;BME280;61150;62.516;17.862;2022-07-09T12:23:19;100235.20;;;17.61;56.82
59759;BME280;61150;62.516;17.862;2022-07-09T12:25:47;100235.08;;;17.66;57.11
59759;BME280;61150;62.516;17.862;2022-07-09T12:28:16;100234.38;;;17.57;57.97
59759;BME280;61150;62.516;17.862;2022-07-09T12:30:45;100234.63;;;17.47;59.64
59759;BME280;61150;62.516;17.862;2022-07-09T12:33:14;100243.24;;;17.27;59.04
59759;BME280;61150;62.516;17.862;2022-07-09T12:35:42;100241.23;;;16.93;59.45
59759;BME280;61150;62.516;17.862;2022-07-09T12:38:11;100244.75;;;16.87;61.94
59759;BME280;61150;62.516;17.862;2022-07-09T12:40:41;100245.48;;;16.45;61.47
59759;BME280;61150;62.516;17.862;2022-07-09T12:43:09;100247.36;;;16.21;63.14
59759;BME280;61150;62.516;17.862;2022-07-09T12:45:38;100247.44;;;16.17;63.38
59759;BME280;61150;62.516;17.862;2022-07-09T12:48:07;100245.27;;;16.06;64.39
59759;BME280;61150;62.516;17.862;2022-07-09T12:50:36;100247.30;;;15.84;64.89
59759;BME280;61150;62.516;17.862;2022-07-09T12:53:05;100251.34;;;15.73;64.88
59759;BME280;61150;62.516;17.862;2022-07-09T12:55:34;100252.93;;;15.67;64.37
59759;BME280;61150;62.516;17.862;2022-07-09T12:58:04;100254.08;;;15.55;65.24
59759;BME280;61150;62.516;17.862;2022-07-09T13:02:53;100253.10;;;14.91;66.89
59759;BME280;61150;62.516;17.862;2022-07-09T13:05:22;100251.15;;;14.90;66.86